Amunt
Inicio > meteoXarxa
Fes-te'n soci

METEOXARXA

Traiguera
Ubicació
Comarca el Baix Maestrat
Altitud (msnm)
Posició geogràfica 40° 31' 22.03" N, 00° 17' 17.02" E
Model Davis Vantage VUE
Presa de dades
Font de les dades Ajuntament de Traiguera
Estadístiques. Resum
Data Temperatura (ºC) Humitat (%) Pressió (hPa) Vent (km/h) Precipit. (mm)
Mínima Mitjana Màxima Mínima Mitjana Màxima Mínima Mitjana Màxima Predom. Mitjana Ràfega màxima Total Dies de pluja
Mínima Mitjana Màxima Mínima Mitjana Màxima
Últimes dades diàries
24-02-2017 9,3     12,2     15,2 NNW 9,2 48,3 2,6  
23-02-2017 10,0     13,2     19,3 W 3,1 20,9 0,0  
22-02-2017 7,1     12,2     18,8 W 4,0 19,3 0,0  
21-02-2017 6,7     11,3     17,8 W 4,5 19,3 0,0  
20-02-2017 6,0     10,5     16,4 W 5,0 24,1 0,0  
19-02-2017 7,4     10,3     14,9 NNW 2,6 20,9 0,0  
18-02-2017 6,2     10,1     15,1 W 3,2 17,7 0,0  
17-02-2017 5,8     10,2     15,6 W 3,2 16,1 0,2  
16-02-2017 8,2     11,4     14,4 SE 1,8 16,1 0,0  
15-02-2017 8,2     11,3     16,3 SE 1,4 20,9 0,0  
14-02-2017 7,9     11,4     15,7 SE 3,1 20,9 0,0  
13-02-2017 9,8     11,9     13,6 N 5,0 24,1 11,8  
12-02-2017 10,3     11,7     13,6 ENE 6,0 25,7 0,2  
11-02-2017 6,3     9,3     11,6 N 4,8 24,1 1,6  
10-02-2017 3,9     7,4     11,4 W 3,5 20,9 0,0  
09-02-2017 4,8     8,6     13,6 NNW 12,1 59,5 0,0  
08-02-2017 7,3     9,0     11,3 NNW 28,5 104,6  
07-02-2017 10,1     15,8     19,6 NNW 10,0 54,7 0,2  
06-02-2017 8,6     13,0     17,3 NNW 18,0 80,5 0,0  
05-02-2017 9,6     11,7     15,1 WNW 15,6 88,5 0,0  
04-02-2017 9,4     13,3     20,0 W 3,2 22,5 0,0  
03-02-2017 7,2     11,8     19,3 W 4,7 40,2 0,0  
02-02-2017 4,7     8,7     11,9 WSW 1,6 17,7 3,0  
01-02-2017 4,6     8,8     14,3 W 1,4 11,3 0,2  
31-01-2017 6,8     10,1     13,5 WNW 1,8 14,5 0,0  
30-01-2017 9,0     11,6     15,1 W 1,9 14,5 0,0  
29-01-2017 5,4     9,6     14,1 W 4,0 27,4 0,0  
28-01-2017 7,3     10,3     13,5 NNW 14,0 62,8 5,4  
27-01-2017 6,0     8,9     12,7 NNW 1,6 27,4 12,6  
26-01-2017 1,8     5,9     9,2 NNW 1,1 16,1 0,0  
25-01-2017 3,9     7,8     11,3 SE 3,1 30,6 0,0  
24-01-2017 7,8     10,1     13,7 WNW 13,0 49,9 0,0  
Dades del mes en curs (actualitzades fins l'últim dia disponible)
02/2017 3,9 7,5 10,3 11,0 11,3 15,5 20,0   6,5 104,6 19,8  
Últimes dades mensuals
01/2017 -0,2 5,0 9,5 8,4 6,6 12,2 18,0 8,4 78,9 109,2 9
12/2016 1,0 7,0 12,3 10,1 9,7 14,4 17,2 4,4 64,4 84,0 10
11/2016 5,1 9,6 13,3 12,8 12,2 16,6 24,4 5,0 78,9 78,4 10
10/2016 11,1 14,5 17,6 17,9 16,3 22,1 25,9 3,1 40,2 14,8 10
09/2016 12,9 17,7 24,2 22,2 21,6 27,2 37,6 5,8 59,5 82,6 5
08/2016 16,3 19,6 22,3 24,3 25,4 29,2 33,6 5,7 53,1 6,0 3
07/2016 15,9 19,7 22,7 24,7 25,3 29,7 34,2 6,1 51,5 0,8 2
06/2016 13,6 17,1 22,3 21,7 17,7 26,8 31,8 6,7 66,0 4,4 6
Dades de l'any en curs (actualitzades fins l'últim dia disponible)
2017 -0,2 6,1 10,3 9,6 6,6 13,7 20,0   7,5 104,6 129,0  
Últimes dades anuals